Terminal Aerodrome Forecast
Issued by NWS Quad Cities IA IL

Home | Current Version | Previous Version | Text Only | Print | Product List | Glossary On
Versions: 1 2 3 4 5 6 7 8 9 10 11 12 13 14 15 16 17 18 19 20 21
198
FTUS43 KDVN 141720
TAFMLI
TAF
KMLI 141720Z 1418/1518 13013KT 2SM -SN FEW015 OVC035
      TEMPO 1418/1421 1/2SM SN FZFG BKN009 OVC015
     FM142100 13010KT 3SM -SN BR BKN020 OVC040
     FM142300 13009KT 5SM -SN BR SCT025 OVC050
     FM150300 12005KT 6SM BR OVC009=

USA.gov is the U.S. government's official web portal to all federal, state and local government web resources and services.